Time;durP1;ratioP1;P1;durP2;ratioP2;P2;SDS_P1;SDS_P2;PMS_P1;PMS_P2;Temp;Humidity;BMP_temperature;BMP_pressure;BME280_temperature;BME280_humidity;BME280_pressure;Samples;Min_cycle;Max_cycle;Signal;HPM_P1;HPM_P2
2022/06/14 00:02:28;;;;;;;4.25;1.73;;;23.70;53.70;;;;;;6302265;27;80349;-70
2022/06/14 00:05:28;;;;;;;2.63;1.70;;;23.70;53.70;;;;;;6305561;27;80605;-70
2022/06/14 00:08:29;;;;;;;2.60;1.83;;;23.70;53.70;;;;;;6304117;27;80568;-69
2022/06/14 00:11:29;;;;;;;3.38;1.67;;;23.70;53.70;;;;;;6287614;27;80634;-69
2022/06/14 00:14:30;;;;;;;3.40;2.13;;;23.70;53.70;;;;;;6299862;27;81518;-68
2022/06/14 00:17:30;;;;;;;4.75;1.75;;;23.70;53.80;;;;;;6301547;27;80614;-69
2022/06/14 00:20:31;;;;;;;5.10;1.85;;;23.70;53.80;;;;;;6299970;27;80914;-69
2022/06/14 00:23:31;;;;;;;2.70;1.73;;;23.70;53.70;;;;;;6304239;27;80411;-68
2022/06/14 00:26:32;;;;;;;3.35;1.63;;;23.70;53.70;;;;;;6308555;27;80461;-70
2022/06/14 00:29:32;;;;;;;4.00;1.80;;;23.70;53.70;;;;;;6305551;27;80740;-68
2022/06/14 00:32:33;;;;;;;3.80;1.80;;;23.60;53.60;;;;;;6307444;27;81401;-69
2022/06/14 00:35:33;;;;;;;3.63;2.17;;;23.70;53.70;;;;;;6306354;27;80932;-69
2022/06/14 00:38:33;;;;;;;3.78;2.08;;;23.60;53.70;;;;;;6303950;27;80367;-69
2022/06/14 00:41:34;;;;;;;5.05;2.33;;;23.60;53.70;;;;;;6305706;27;80406;-70
2022/06/14 00:44:34;;;;;;;2.75;1.40;;;23.60;53.70;;;;;;6289360;27;83391;-70
2022/06/14 00:47:35;;;;;;;3.75;1.98;;;23.60;54.40;;;;;;6308010;27;80511;-69
2022/06/14 00:50:36;;;;;;;3.55;1.80;;;23.60;53.80;;;;;;6301939;27;81682;-69
2022/06/14 00:53:36;;;;;;;4.40;1.98;;;23.60;53.90;;;;;;6304379;27;80605;-69
2022/06/14 00:56:37;;;;;;;2.42;1.88;;;23.60;53.90;;;;;;6308578;27;80540;-70
2022/06/14 00:59:37;;;;;;;5.13;1.80;;;23.60;53.90;;;;;;6299746;27;81076;-71
2022/06/14 01:02:38;;;;;;;6.57;2.65;;;23.60;54.00;;;;;;6309024;27;80791;-71
2022/06/14 01:08:57;;;;;;;2.67;2.10;;;23.60;54.20;;;;;;6303637;27;80962;-71
2022/06/14 01:11:58;;;;;;;5.82;2.53;;;23.60;54.20;;;;;;6305968;27;80453;-66
2022/06/14 01:14:58;;;;;;;6.57;2.42;;;23.60;54.20;;;;;;6306894;27;80370;-69
2022/06/14 01:17:59;;;;;;;3.35;2.42;;;23.60;54.20;;;;;;6304731;27;80337;-70
2022/06/14 01:20:59;;;;;;;5.40;2.33;;;23.60;54.30;;;;;;6297444;27;80388;-70
2022/06/14 01:24:00;;;;;;;5.97;2.80;;;23.60;54.40;;;;;;6307677;27;80369;-69
2022/06/14 01:27:00;;;;;;;4.35;2.65;;;23.60;54.40;;;;;;6307758;27;80261;-70
2022/06/14 01:30:01;;;;;;;7.30;2.65;;;23.60;54.70;;;;;;6275042;27;80258;-71
2022/06/14 01:33:01;;;;;;;4.10;2.22;;;23.60;54.40;;;;;;6304273;27;80274;-69
2022/06/14 01:36:02;;;;;;;4.88;2.90;;;23.60;54.50;;;;;;6284251;27;80889;-70
2022/06/14 01:39:02;;;;;;;5.55;2.83;;;23.60;54.50;;;;;;6306129;27;80553;-69
2022/06/14 01:42:03;;;;;;;5.40;3.13;;;23.60;54.60;;;;;;6306442;27;80627;-70
2022/06/14 01:45:03;;;;;;;6.25;2.58;;;23.60;54.60;;;;;;6302909;27;81634;-69
2022/06/14 01:48:04;;;;;;;12.57;2.88;;;23.60;54.70;;;;;;6305472;27;80508;-70
2022/06/14 01:54:23;;;;;;;4.93;3.05;;;23.60;54.80;;;;;;6307423;27;81034;-70
2022/06/14 01:57:24;;;;;;;5.63;2.95;;;23.60;54.90;;;;;;6302768;27;80263;-68
2022/06/14 02:00:24;;;;;;;6.32;2.72;;;23.60;54.80;;;;;;6316477;27;81482;-71
2022/06/14 02:06:44;;;;;;;6.38;2.80;;;23.50;54.80;;;;;;6316139;27;80460;-71
2022/06/14 02:09:45;;;;;;;7.18;2.90;;;23.50;54.90;;;;;;6294486;27;81906;-70
2022/06/14 02:12:45;;;;;;;3.28;2.30;;;23.50;54.90;;;;;;6315865;27;80377;-69
2022/06/14 02:15:46;;;;;;;5.57;3.20;;;23.50;54.90;;;;;;6312103;27;80509;-68
2022/06/14 02:18:46;;;;;;;5.05;2.90;;;23.50;54.90;;;;;;6310897;27;80554;-68
2022/06/14 02:21:47;;;;;;;7.38;2.88;;;23.50;54.90;;;;;;6315993;27;80661;-69
2022/06/14 02:24:47;;;;;;;5.47;2.72;;;23.50;55.10;;;;;;6315940;27;80839;-69
2022/06/14 02:27:48;;;;;;;6.75;3.05;;;23.50;55.10;;;;;;6305761;27;80353;-68
2022/06/14 02:30:48;;;;;;;6.25;3.25;;;23.50;55.20;;;;;;6298548;27;81797;-66
2022/06/14 02:33:49;;;;;;;5.95;3.53;;;23.50;55.10;;;;;;6306847;27;80310;-69
2022/06/14 02:36:49;;;;;;;5.38;2.95;;;23.60;55.10;;;;;;6315320;27;81271;-69
2022/06/14 02:39:50;;;;;;;6.63;2.92;;;23.50;55.20;;;;;;6289459;27;81592;-66
2022/06/14 02:42:50;;;;;;;7.88;2.97;;;23.60;55.20;;;;;;6315427;27;80470;-73
2022/06/14 02:45:51;;;;;;;5.70;3.03;;;23.60;55.20;;;;;;6315423;27;80544;-73
2022/06/14 02:48:51;;;;;;;6.40;2.60;;;23.60;55.20;;;;;;6315632;27;80345;-73
2022/06/14 02:51:52;;;;;;;7.20;3.40;;;23.60;55.20;;;;;;6315176;27;80340;-72
2022/06/14 02:54:52;;;;;;;6.25;3.38;;;23.60;55.20;;;;;;6315270;27;80871;-73
2022/06/14 02:57:53;;;;;;;7.30;3.15;;;23.60;55.20;;;;;;6314943;27;81815;-72
2022/06/14 03:00:53;;;;;;;4.05;2.83;;;23.60;55.20;;;;;;6296261;27;81485;-71
2022/06/14 03:03:54;;;;;;;6.13;3.00;;;23.50;55.30;;;;;;6295908;27;81598;-73
2022/06/14 03:06:56;;;;;;;8.70;3.40;;;23.60;55.30;;;;;;6306065;27;80878;-72
2022/06/14 03:09:57;;;;;;;3.97;2.88;;;23.60;55.20;;;;;;6288513;27;80948;-72
2022/06/14 03:12:57;;;;;;;7.72;3.83;;;23.50;55.30;;;;;;6291524;27;81466;-73
2022/06/14 03:15:58;;;;;;;8.02;3.00;;;23.50;55.30;;;;;;6308511;27;80243;-72
2022/06/14 03:18:58;;;;;;;7.18;3.35;;;23.60;55.40;;;;;;6308339;27;80854;-73
2022/06/14 03:21:59;;;;;;;8.80;3.13;;;23.60;55.50;;;;;;6307525;27;80826;-72
2022/06/14 03:25:00;;;;;;;7.97;3.45;;;23.50;55.40;;;;;;6310416;27;80886;-72
2022/06/14 03:28:01;;;;;;;8.00;3.60;;;23.60;55.50;;;;;;6280220;27;81667;-74
2022/06/14 03:31:01;;;;;;;4.53;3.17;;;23.60;55.70;;;;;;6305711;27;80416;-72
2022/06/14 03:34:02;;;;;;;4.20;2.63;;;23.60;55.70;;;;;;6303714;27;80889;-74
2022/06/14 03:37:02;;;;;;;6.80;3.63;;;23.50;55.60;;;;;;6304758;27;80668;-71
2022/06/14 03:40:03;;;;;;;7.45;2.92;;;23.60;55.70;;;;;;6308010;27;80809;-72
2022/06/14 03:43:03;;;;;;;4.10;2.65;;;23.60;55.80;;;;;;6293228;27;81047;-71
2022/06/14 03:46:04;;;;;;;8.32;3.30;;;23.60;55.80;;;;;;6307196;27;80987;-70
2022/06/14 03:49:04;;;;;;;4.43;2.55;;;23.60;55.80;;;;;;6305237;27;80517;-67
2022/06/14 03:52:05;;;;;;;4.63;3.15;;;23.60;56.30;;;;;;6304997;27;80239;-66
2022/06/14 03:55:05;;;;;;;4.45;2.60;;;23.70;56.20;;;;;;6309657;27;80850;-68
2022/06/14 03:58:06;;;;;;;8.88;3.53;;;23.70;56.10;;;;;;6301657;27;80692;-67
2022/06/14 04:01:07;;;;;;;5.53;2.90;;;23.70;56.10;;;;;;6300130;27;81039;-66
2022/06/14 04:04:07;;;;;;;8.80;3.90;;;23.80;56.20;;;;;;6307188;27;80542;-65
2022/06/14 04:07:08;;;;;;;5.97;3.38;;;23.80;57.00;;;;;;6309109;27;79961;-67
2022/06/14 04:10:08;;;;;;;4.55;3.10;;;23.90;57.40;;;;;;6280897;27;80524;-67
2022/06/14 04:13:09;;;;;;;6.70;2.80;;;23.90;57.60;;;;;;6287699;27;83526;-67
2022/06/14 04:16:09;;;;;;;5.57;2.90;;;23.90;57.50;;;;;;6303582;27;80338;-67
2022/06/14 04:19:09;;;;;;;5.15;2.65;;;23.90;57.40;;;;;;6307637;27;80452;-67
2022/06/14 04:22:10;;;;;;;5.75;2.45;;;23.90;57.80;;;;;;6305418;27;81453;-67
2022/06/14 04:25:11;;;;;;;4.18;2.42;;;24.00;57.70;;;;;;6304682;27;81245;-67
2022/06/14 04:28:11;;;;;;;6.28;3.35;;;24.00;57.90;;;;;;6308551;27;80371;-65
2022/06/14 04:31:12;;;;;;;8.23;3.00;;;24.00;57.70;;;;;;6303197;27;80335;-65
2022/06/14 04:34:12;;;;;;;5.60;2.88;;;24.10;58.00;;;;;;6282248;27;82682;-64
2022/06/14 04:37:13;;;;;;;6.43;3.58;;;24.10;57.50;;;;;;6300401;27;80423;-64
2022/06/14 04:40:13;;;;;;;6.97;2.65;;;24.10;57.70;;;;;;6301857;27;81112;-65
2022/06/14 04:43:14;;;;;;;3.45;2.50;;;24.10;57.60;;;;;;6307146;27;80216;-65
2022/06/14 04:46:14;;;;;;;5.30;3.15;;;24.10;57.60;;;;;;6308956;27;80411;-66
2022/06/14 04:49:15;;;;;;;6.18;2.97;;;24.10;57.70;;;;;;6300892;27;80449;-62
2022/06/14 04:52:15;;;;;;;5.40;3.08;;;24.10;57.60;;;;;;6276437;27;81824;-63
2022/06/14 04:55:16;;;;;;;3.72;2.53;;;24.10;57.50;;;;;;6299810;27;80367;-66
2022/06/14 04:58:16;;;;;;;7.95;3.30;;;24.10;57.80;;;;;;6297571;27;80444;-64
2022/06/14 05:01:17;;;;;;;6.03;3.25;;;24.10;57.60;;;;;;6302291;27;80402;-66
2022/06/14 05:04:17;;;;;;;8.75;2.70;;;24.10;57.60;;;;;;6306407;27;81054;-66
2022/06/14 05:07:18;;;;;;;6.28;3.15;;;24.20;57.90;;;;;;6309291;27;80402;-63
2022/06/14 05:10:18;;;;;;;9.57;3.25;;;24.20;58.00;;;;;;6306972;27;80843;-67
2022/06/14 05:13:19;;;;;;;13.63;4.55;;;24.10;57.50;;;;;;6306033;27;80469;-66
2022/06/14 05:16:19;;;;;;;8.75;4.63;;;24.00;56.90;;;;;;6305414;27;80494;-65
2022/06/14 05:19:20;;;;;;;13.07;4.40;;;23.90;56.80;;;;;;6302713;27;80503;-67
2022/06/14 05:22:20;;;;;;;10.90;4.47;;;23.80;56.90;;;;;;6310843;27;81435;-67
2022/06/14 05:25:21;;;;;;;10.25;4.50;;;23.80;56.90;;;;;;6288785;27;82691;-67
2022/06/14 05:28:21;;;;;;;16.65;3.88;;;23.70;56.90;;;;;;6307944;27;80270;-67
2022/06/14 05:31:22;;;;;;;8.85;4.47;;;23.70;56.70;;;;;;6301705;27;80176;-67
2022/06/14 05:34:22;;;;;;;10.00;4.55;;;23.70;56.70;;;;;;6304866;27;81485;-67
2022/06/14 05:37:23;;;;;;;10.20;4.40;;;23.70;56.50;;;;;;6300419;27;80811;-67
2022/06/14 05:40:23;;;;;;;10.23;4.60;;;23.60;56.50;;;;;;6283294;27;81648;-67
2022/06/14 05:43:24;;;;;;;14.38;4.80;;;23.60;56.50;;;;;;6302653;27;81228;-67
2022/06/14 05:46:25;;;;;;;11.02;4.60;;;23.60;56.40;;;;;;6306266;27;80500;-67
2022/06/14 05:49:26;;;;;;;8.70;4.93;;;23.50;56.50;;;;;;6303135;27;80488;-67
2022/06/14 05:52:26;;;;;;;14.48;5.55;;;23.50;56.60;;;;;;6311311;27;80252;-67
2022/06/14 05:55:27;;;;;;;7.75;4.18;;;23.50;56.50;;;;;;6307232;27;80654;-68
2022/06/14 05:58:27;;;;;;;11.68;5.30;;;23.40;56.40;;;;;;6308482;27;80221;-67
2022/06/14 06:01:28;;;;;;;12.90;5.13;;;23.40;56.30;;;;;;6304921;27;81739;-68
2022/06/14 06:04:29;;;;;;;9.27;4.65;;;23.40;56.30;;;;;;6312460;27;80252;-68
2022/06/14 06:07:29;;;;;;;10.50;5.32;;;23.40;56.20;;;;;;6296252;27;80302;-68
2022/06/14 06:10:31;;;;;;;11.48;4.53;;;23.40;55.70;;;;;;6292315;27;83789;-68
2022/06/14 06:13:31;;;;;;;13.82;4.95;;;23.40;55.70;;;;;;6306284;27;80548;-68
2022/06/14 06:16:56;;;;;;;9.10;5.13;;;23.50;55.80;;;;;;6298639;27;80809;-67
2022/06/14 06:19:52;;;;;;;10.93;5.43;;;23.40;55.60;;;;;;6303927;27;80239;-67
2022/06/14 06:22:53;;;;;;;11.23;4.50;;;23.40;55.50;;;;;;6307320;27;80273;-67
2022/06/14 06:25:53;;;;;;;10.73;4.65;;;23.50;55.60;;;;;;6307416;27;80769;-67
2022/06/14 06:28:54;;;;;;;8.57;4.47;;;23.50;55.20;;;;;;6305766;27;80061;-67
2022/06/14 06:31:54;;;;;;;6.20;3.78;;;23.50;54.80;;;;;;6304114;27;80271;-67
2022/06/14 06:34:55;;;;;;;10.35;5.00;;;23.50;54.50;;;;;;6303341;27;80474;-67
2022/06/14 06:37:55;;;;;;;11.55;4.10;;;23.50;54.50;;;;;;6298162;27;80828;-67
2022/06/14 06:44:15;;;;;;;8.45;4.13;;;23.50;54.50;;;;;;6306412;27;86240;-68
2022/06/14 06:47:15;;;;;;;11.73;4.25;;;23.50;54.40;;;;;;6307221;27;80404;-68
2022/06/14 06:50:16;;;;;;;11.23;4.30;;;23.60;54.60;;;;;;6304042;27;80226;-68
2022/06/14 06:53:16;;;;;;;10.02;4.00;;;23.50;54.40;;;;;;6310422;27;80512;-68
2022/06/14 06:56:17;;;;;;;9.80;4.88;;;23.50;54.20;;;;;;6296225;27;81055;-67
2022/06/14 06:59:17;;;;;;;8.70;4.25;;;23.50;54.20;;;;;;6296339;27;84727;-68
2022/06/14 07:02:18;;;;;;;6.70;3.90;;;23.40;54.00;;;;;;6310652;27;80816;-69
2022/06/14 07:05:18;;;;;;;9.40;4.70;;;23.50;54.20;;;;;;6310972;27;82291;-68
2022/06/14 07:08:19;;;;;;;10.63;4.03;;;23.40;54.30;;;;;;6298888;27;80765;-68
2022/06/14 07:11:19;;;;;;;7.68;3.92;;;23.50;54.40;;;;;;6313060;27;80502;-68
2022/06/14 07:14:20;;;;;;;9.55;4.85;;;23.50;54.00;;;;;;6298582;27;80297;-67
2022/06/14 07:17:20;;;;;;;6.03;3.88;;;23.40;54.00;;;;;;6307632;27;82882;-67
2022/06/14 07:20:21;;;;;;;8.95;4.28;;;23.40;54.20;;;;;;6291612;27;80633;-67
2022/06/14 07:23:21;;;;;;;13.02;4.50;;;23.40;54.10;;;;;;6309767;27;84267;-67
2022/06/14 07:26:22;;;;;;;8.00;4.03;;;23.40;54.30;;;;;;6292627;27;81765;-67
2022/06/14 07:29:22;;;;;;;9.02;3.45;;;23.40;54.10;;;;;;6287403;27;87885;-69
2022/06/14 07:32:23;;;;;;;6.95;3.65;;;23.40;53.80;;;;;;6292187;27;80459;-67
2022/06/14 07:35:24;;;;;;;9.10;3.58;;;23.40;54.10;;;;;;6310070;27;80750;-67
2022/06/14 07:38:24;;;;;;;5.68;3.60;;;23.30;53.70;;;;;;6305191;27;80326;-67
2022/06/14 07:41:25;;;;;;;8.13;3.97;;;23.30;54.00;;;;;;6312589;27;80465;-67
2022/06/14 07:44:25;;;;;;;8.15;3.90;;;23.40;54.40;;;;;;6305580;27;80736;-67
2022/06/14 07:47:26;;;;;;;7.32;4.00;;;23.40;54.10;;;;;;6295475;27;82154;-67
2022/06/14 07:50:26;;;;;;;5.97;3.67;;;23.40;53.70;;;;;;6308876;27;80675;-68
2022/06/14 07:53:26;;;;;;;7.20;3.28;;;23.40;53.50;;;;;;6291805;27;80592;-68
2022/06/14 07:56:27;;;;;;;10.07;3.38;;;23.50;53.20;;;;;;6307128;27;84089;-67
2022/06/14 07:59:27;;;;;;;8.02;4.03;;;23.50;53.50;;;;;;6303507;27;80404;-68
2022/06/14 08:02:28;;;;;;;5.78;2.92;;;23.60;53.20;;;;;;6314007;27;80560;-68
2022/06/14 08:05:28;;;;;;;6.80;3.40;;;23.60;53.60;;;;;;6303021;27;80560;-68
2022/06/14 08:08:29;;;;;;;6.20;3.03;;;23.60;53.30;;;;;;6301314;27;80726;-68
2022/06/14 08:11:30;;;;;;;7.13;3.25;;;23.60;52.90;;;;;;6309158;27;80376;-66
2022/06/14 08:14:30;;;;;;;8.15;4.07;;;23.60;52.90;;;;;;6308686;27;80495;-66
2022/06/14 08:17:31;;;;;;;10.57;2.92;;;23.70;53.50;;;;;;6309695;27;80314;-66
2022/06/14 08:20:31;;;;;;;6.07;2.90;;;23.70;52.90;;;;;;6307858;27;80236;-68
2022/06/14 08:23:32;;;;;;;5.38;2.97;;;23.80;52.90;;;;;;6306557;27;80981;-68
2022/06/14 08:26:32;;;;;;;7.38;2.65;;;23.80;52.50;;;;;;6304436;27;81670;-69
2022/06/14 08:29:32;;;;;;;7.53;2.70;;;23.80;51.60;;;;;;6290063;27;81428;-66
2022/06/14 08:32:33;;;;;;;5.13;2.22;;;23.80;51.50;;;;;;6305087;27;80145;-66
2022/06/14 08:35:33;;;;;;;4.25;2.63;;;23.80;51.50;;;;;;6308713;27;80532;-66
2022/06/14 08:38:34;;;;;;;5.50;2.92;;;23.90;51.30;;;;;;6304750;27;80304;-67
2022/06/14 08:41:34;;;;;;;5.28;2.50;;;23.90;52.10;;;;;;6305772;27;80733;-68
2022/06/14 08:44:35;;;;;;;5.28;2.28;;;23.90;51.20;;;;;;6327782;27;81337;-67
2022/06/14 08:47:35;;;;;;;8.15;2.17;;;23.90;51.10;;;;;;6309609;27;80385;-68
2022/06/14 08:50:36;;;;;;;5.43;2.47;;;23.90;50.40;;;;;;6306826;27;80386;-67
2022/06/14 08:53:36;;;;;;;6.55;2.55;;;23.90;50.80;;;;;;6310462;27;80298;-67
2022/06/14 08:56:37;;;;;;;5.82;2.65;;;23.90;50.70;;;;;;6300792;27;81309;-67
2022/06/14 08:59:38;;;;;;;4.63;2.53;;;24.00;50.70;;;;;;6283505;27;83076;-67
2022/06/14 09:02:38;;;;;;;4.82;2.38;;;24.00;51.20;;;;;;6297412;27;81195;-67
2022/06/14 09:05:39;;;;;;;4.03;2.55;;;24.00;50.60;;;;;;6306084;27;80423;-68
2022/06/14 09:08:40;;;;;;;4.65;2.42;;;24.00;50.10;;;;;;6300368;27;80690;-67
2022/06/14 09:11:40;;;;;;;4.03;2.05;;;24.10;50.10;;;;;;6307487;27;80999;-67
2022/06/14 09:14:41;;;;;;;3.53;2.17;;;24.10;50.20;;;;;;6289549;27;81961;-67
2022/06/14 09:17:41;;;;;;;4.72;2.22;;;24.10;50.40;;;;;;6308380;27;80857;-67
2022/06/14 09:20:42;;;;;;;5.35;2.22;;;24.10;50.70;;;;;;6307771;27;80964;-67
2022/06/14 09:23:42;;;;;;;3.38;2.00;;;24.10;50.30;;;;;;6313637;27;80871;-67
2022/06/14 09:26:43;;;;;;;3.67;1.95;;;24.10;50.10;;;;;;6313004;27;80865;-68
2022/06/14 09:29:44;;;;;;;2.83;2.03;;;24.10;50.00;;;;;;6317309;27;81451;-67
2022/06/14 09:36:03;;;;;;;8.00;3.33;;;24.10;49.00;;;;;;6307539;27;84801;-68
2022/06/14 09:39:04;;;;;;;5.50;2.72;;;24.10;48.80;;;;;;6303087;27;80526;-67
2022/06/14 09:42:04;;;;;;;4.97;2.00;;;24.20;49.80;;;;;;6308000;27;80465;-67
2022/06/14 09:45:06;;;;;;;8.48;2.47;;;24.20;49.20;;;;;;6308061;27;80819;-68
2022/06/14 09:48:07;;;;;;;4.45;2.10;;;24.20;49.50;;;;;;6306802;27;80503;-67
2022/06/14 09:51:07;;;;;;;5.95;2.38;;;24.20;49.50;;;;;;6309392;27;80425;-68
2022/06/14 09:54:08;;;;;;;3.13;2.00;;;24.20;49.40;;;;;;6305110;27;80520;-68
2022/06/14 09:57:08;;;;;;;3.67;2.10;;;24.20;49.20;;;;;;6307676;27;81434;-68
2022/06/14 10:00:09;;;;;;;4.93;2.13;;;24.20;48.80;;;;;;6294398;27;80278;-68
2022/06/14 10:03:09;;;;;;;4.25;2.25;;;24.20;49.30;;;;;;6306681;27;81678;-68
2022/06/14 10:06:10;;;;;;;2.55;1.70;;;24.20;49.00;;;;;;6299259;27;80382;-67
2022/06/14 10:09:10;;;;;;;4.50;1.90;;;24.20;49.10;;;;;;6303392;27;80313;-68
2022/06/14 10:12:11;;;;;;;3.95;2.03;;;24.10;48.80;;;;;;6303083;27;80440;-67
2022/06/14 10:15:11;;;;;;;5.70;2.00;;;24.10;48.60;;;;;;6290883;27;80319;-67
2022/06/14 10:18:12;;;;;;;2.97;1.83;;;24.10;48.80;;;;;;6305623;27;80771;-67
2022/06/14 10:21:13;;;;;;;7.43;1.80;;;24.10;48.80;;;;;;6307911;27;84617;-70
2022/06/14 10:24:14;;;;;;;6.88;1.75;;;24.10;48.60;;;;;;6310080;27;80842;-67
2022/06/14 10:30:41;;;;;;;3.70;1.83;;;24.10;48.70;;;;;;6286213;27;80647;-68
2022/06/14 10:33:43;;;;;;;8.48;2.65;;;24.10;48.20;;;;;;6309510;27;80541;-67
2022/06/14 10:36:43;;;;;;;2.92;1.65;;;24.10;48.40;;;;;;6308684;27;81087;-68
2022/06/14 10:39:44;;;;;;;3.65;1.90;;;24.10;48.50;;;;;;6308837;27;80449;-67
2022/06/14 10:42:44;;;;;;;5.38;1.70;;;24.20;48.70;;;;;;6312729;27;81023;-67
2022/06/14 10:45:45;;;;;;;4.47;1.80;;;24.10;48.90;;;;;;6310170;27;80285;-67
2022/06/14 10:48:45;;;;;;;2.75;1.77;;;24.20;48.70;;;;;;6311779;27;81091;-68
2022/06/14 10:51:46;;;;;;;3.42;2.00;;;24.20;48.80;;;;;;6307395;27;81413;-68
2022/06/14 10:54:46;;;;;;;2.33;1.60;;;24.10;48.30;;;;;;6307523;27;80608;-68
2022/06/14 10:57:46;;;;;;;3.55;1.58;;;24.10;48.10;;;;;;6297302;27;80334;-68
2022/06/14 11:00:47;;;;;;;5.35;1.83;;;24.20;47.90;;;;;;6310741;27;80605;-68
2022/06/14 11:03:47;;;;;;;3.50;1.40;;;24.20;48.10;;;;;;6300780;27;80402;-68
2022/06/14 11:06:48;;;;;;;2.40;1.65;;;24.20;48.10;;;;;;6308422;27;80345;-68
2022/06/14 11:09:48;;;;;;;2.70;1.63;;;24.20;48.60;;;;;;6290027;27;83330;-67
2022/06/14 11:12:49;;;;;;;3.00;1.67;;;24.20;48.20;;;;;;6310963;27;80554;-67
2022/06/14 11:15:49;;;;;;;2.35;1.63;;;24.20;48.10;;;;;;6311200;27;80212;-68
2022/06/14 11:18:50;;;;;;;2.08;1.27;;;24.20;47.80;;;;;;6308069;27;80752;-68
2022/06/14 11:21:50;;;;;;;7.10;2.20;;;24.20;47.70;;;;;;6305179;27;81084;-68
2022/06/14 11:24:51;;;;;;;2.00;1.52;;;24.20;47.40;;;;;;6307809;27;80028;-68
2022/06/14 11:27:51;;;;;;;6.03;2.10;;;24.30;47.60;;;;;;6311158;27;80388;-67
2022/06/14 11:30:52;;;;;;;3.83;1.63;;;24.30;48.00;;;;;;6310282;27;80935;-68
2022/06/14 11:33:53;;;;;;;4.22;1.48;;;24.30;47.70;;;;;;6317071;27;80971;-67
2022/06/14 11:36:53;;;;;;;2.70;1.48;;;24.30;47.60;;;;;;6305443;27;80817;-66
2022/06/14 11:39:54;;;;;;;2.65;1.70;;;24.30;47.60;;;;;;6311136;27;80334;-68
2022/06/14 11:42:54;;;;;;;2.90;1.30;;;24.30;47.50;;;;;;6310324;27;80246;-68
2022/06/14 11:45:55;;;;;;;2.45;1.77;;;24.30;47.80;;;;;;6307776;27;80313;-67
2022/06/14 11:48:55;;;;;;;5.10;1.60;;;24.40;47.70;;;;;;6308215;27;80576;-68
2022/06/14 11:51:56;;;;;;;2.45;1.50;;;24.40;47.70;;;;;;6304702;27;80195;-68
2022/06/14 11:54:56;;;;;;;7.25;2.17;;;24.40;47.70;;;;;;6307320;27;81068;-69
2022/06/14 11:57:57;;;;;;;3.75;1.40;;;24.40;47.70;;;;;;6288823;27;81945;-69
2022/06/14 12:00:57;;;;;;;5.18;2.03;;;24.40;46.70;;;;;;6303242;27;81539;-69
2022/06/14 12:03:58;;;;;;;5.50;2.85;;;24.10;45.70;;;;;;6300909;27;80464;-72
2022/06/14 12:06:58;;;;;;;4.38;2.60;;;24.10;46.20;;;;;;6304516;27;80554;-72
2022/06/14 12:09:59;;;;;;;3.17;1.83;;;24.00;46.50;;;;;;6309461;27;80363;-69
2022/06/14 12:13:00;;;;;;;9.65;2.13;;;24.10;46.30;;;;;;6306799;27;80520;-75
2022/06/14 12:16:00;;;;;;;3.92;1.90;;;24.10;45.50;;;;;;6307761;27;80798;-70
2022/06/14 12:19:01;;;;;;;3.08;2.13;;;24.10;45.10;;;;;;6307699;27;81203;-69
2022/06/14 12:22:26;;;;;;;3.15;1.40;;;24.10;45.10;;;;;;6308253;27;81408;-69
2022/06/14 12:28:41;;;;;;;3.03;1.80;;;24.00;45.60;;;;;;6307213;27;81084;-68
2022/06/14 12:31:41;;;;;;;4.80;1.60;;;24.00;45.60;;;;;;6306508;27;80228;-68
2022/06/14 12:34:42;;;;;;;3.22;1.55;;;24.00;46.20;;;;;;6300490;27;80819;-68
2022/06/14 12:37:42;;;;;;;3.40;1.90;;;24.00;45.50;;;;;;6286463;27;80249;-68
2022/06/14 12:40:43;;;;;;;2.22;1.38;;;24.00;45.90;;;;;;6310130;27;80774;-69
2022/06/14 12:43:44;;;;;;;3.15;1.85;;;23.90;45.30;;;;;;6306223;27;80422;-67
2022/06/14 12:46:44;;;;;;;4.00;1.67;;;23.70;46.30;;;;;;6302498;27;80310;-68
2022/06/14 12:49:45;;;;;;;8.07;1.40;;;23.80;45.80;;;;;;6298401;27;80402;-70
2022/06/14 12:52:46;;;;;;;5.35;1.77;;;23.90;46.10;;;;;;6297471;27;81245;-69
2022/06/14 12:55:46;;;;;;;3.97;1.73;;;23.90;46.40;;;;;;6296526;27;81423;-69
2022/06/14 12:58:47;;;;;;;2.33;1.70;;;24.00;46.00;;;;;;6291875;27;85046;-68
2022/06/14 13:01:47;;;;;;;4.88;1.70;;;24.00;46.00;;;;;;6294917;27;80035;-69
2022/06/14 13:04:48;;;;;;;4.07;1.58;;;24.00;45.80;;;;;;6294725;27;80501;-68
2022/06/14 13:07:49;;;;;;;3.05;1.40;;;23.90;45.90;;;;;;6300899;27;80260;-67
2022/06/14 13:10:49;;;;;;;4.22;1.58;;;23.60;45.20;;;;;;6307547;27;80356;-68
2022/06/14 13:13:50;;;;;;;6.50;1.85;;;23.40;45.30;;;;;;6305369;27;81372;-69
2022/06/14 13:16:50;;;;;;;3.40;1.45;;;23.40;45.70;;;;;;6301818;27;80498;-68
2022/06/14 13:19:51;;;;;;;7.45;1.80;;;23.50;46.00;;;;;;6304746;27;80498;-68
2022/06/14 13:22:52;;;;;;;4.40;1.80;;;23.70;45.70;;;;;;6308873;27;80505;-68
2022/06/14 13:25:52;;;;;;;6.95;2.05;;;23.40;45.00;;;;;;6286725;27;80451;-68
2022/06/14 13:28:53;;;;;;;3.90;1.73;;;23.10;45.10;;;;;;6308847;27;80829;-68
2022/06/14 13:31:54;;;;;;;3.53;1.40;;;23.20;45.10;;;;;;6305726;27;81022;-70
2022/06/14 13:34:55;;;;;;;8.13;1.35;;;23.10;45.30;;;;;;6300909;27;80665;-65
2022/06/14 13:37:55;;;;;;;6.78;1.63;;;23.40;45.60;;;;;;6299745;27;80530;-63
2022/06/14 13:40:56;;;;;;;8.35;1.67;;;23.60;45.60;;;;;;6308541;27;80469;-68
2022/06/14 13:43:56;;;;;;;2.90;1.60;;;23.70;45.60;;;;;;6302751;27;80480;-68
2022/06/14 13:46:58;;;;;;;7.35;2.08;;;23.80;45.90;;;;;;6304354;27;80650;-68
2022/06/14 13:49:59;;;;;;;10.32;1.55;;;23.90;46.10;;;;;;6300154;27;80393;-68
2022/06/14 13:52:59;;;;;;;15.25;4.63;;;24.00;45.70;;;;;;6284731;27;80273;-68
2022/06/14 13:56:00;;;;;;;166.50;66.43;;;24.00;46.30;;;;;;6305603;27;80374;-67
2022/06/14 13:59:00;;;;;;;144.98;61.38;;;24.10;46.10;;;;;;6300396;27;83333;-67
2022/06/14 14:02:01;;;;;;;117.05;50.13;;;24.10;46.00;;;;;;6296023;27;83440;-68
2022/06/14 14:05:01;;;;;;;221.98;89.28;;;24.20;45.80;;;;;;6294653;27;83746;-68
2022/06/14 14:08:02;;;;;;;187.38;80.72;;;24.20;45.80;;;;;;6300713;27;83398;-69
2022/06/14 14:11:02;;;;;;;161.65;63.95;;;24.30;46.00;;;;;;6285448;27;83852;-67
2022/06/14 14:14:03;;;;;;;153.95;58.92;;;24.30;46.10;;;;;;6295707;27;83026;-69
2022/06/14 14:17:03;;;;;;;114.60;46.28;;;24.30;46.00;;;;;;6298247;27;83707;-69
2022/06/14 14:20:04;;;;;;;91.80;38.08;;;24.30;46.90;;;;;;6298240;27;83117;-69
2022/06/14 14:23:04;;;;;;;75.28;31.60;;;24.30;45.70;;;;;;6292439;27;83561;-68
2022/06/14 14:26:05;;;;;;;66.47;27.02;;;24.30;45.40;;;;;;6285903;27;83247;-68
2022/06/14 14:29:05;;;;;;;54.80;22.65;;;24.30;45.50;;;;;;6288600;27;83638;-68
2022/06/14 14:32:06;;;;;;;49.92;19.45;;;24.30;45.30;;;;;;6303781;27;83393;-69
2022/06/14 14:35:06;;;;;;;40.55;18.50;;;24.30;45.40;;;;;;6300225;27;83086;-70
2022/06/14 14:38:06;;;;;;;44.45;18.80;;;24.30;45.40;;;;;;6295423;27;83198;-69
2022/06/14 14:44:26;;;;;;;30.95;15.20;;;24.40;45.40;;;;;;6297636;27;83150;-70
2022/06/14 14:47:27;;;;;;;34.22;12.40;;;24.40;45.20;;;;;;6304135;27;83614;-70
2022/06/14 14:50:27;;;;;;;30.40;13.52;;;24.40;45.40;;;;;;6286601;27;83342;-69
2022/06/14 14:53:28;;;;;;;28.98;12.48;;;24.40;45.00;;;;;;6285093;27;83094;-69
2022/06/14 14:56:28;;;;;;;30.65;11.63;;;24.40;45.10;;;;;;6286604;27;83311;-69
2022/06/14 14:59:29;;;;;;;20.05;9.38;;;24.40;45.00;;;;;;6295040;27;82974;-69
2022/06/14 15:05:49;;;;;;;20.10;7.95;;;24.40;45.20;;;;;;6299658;27;80466;-69
2022/06/14 15:08:50;;;;;;;15.88;7.70;;;24.40;45.10;;;;;;6304929;27;80714;-68
2022/06/14 15:11:51;;;;;;;17.67;7.00;;;24.40;44.90;;;;;;6304134;27;80793;-67
2022/06/14 15:14:52;;;;;;;14.02;6.70;;;24.40;44.80;;;;;;6303327;27;81509;-68
2022/06/14 15:21:11;;;;;;;14.80;6.25;;;24.40;44.50;;;;;;6306318;27;81554;-68
2022/06/14 15:24:12;;;;;;;12.25;5.15;;;24.40;44.40;;;;;;6283948;27;80752;-67
2022/06/14 15:27:12;;;;;;;9.55;4.72;;;24.30;44.50;;;;;;6289445;27;80973;-68
2022/06/14 15:30:12;;;;;;;11.55;4.40;;;24.30;44.90;;;;;;6295460;27;80608;-70
2022/06/14 15:33:13;;;;;;;11.75;4.18;;;24.30;44.60;;;;;;6302294;27;80801;-68
2022/06/14 15:36:13;;;;;;;11.10;5.18;;;24.30;44.60;;;;;;6302203;27;81438;-68
2022/06/14 15:39:14;;;;;;;9.13;4.40;;;24.40;45.00;;;;;;6288777;27;81675;-69
2022/06/14 15:42:14;;;;;;;10.00;3.83;;;24.40;44.90;;;;;;6311134;27;80455;-69
2022/06/14 15:45:15;;;;;;;10.05;3.83;;;24.40;45.20;;;;;;6304118;27;81419;-69
2022/06/14 15:48:16;;;;;;;11.68;5.05;;;24.40;45.40;;;;;;6310660;27;80414;-69
2022/06/14 15:51:16;;;;;;;10.27;3.97;;;24.40;45.90;;;;;;6311298;27;80953;-68
2022/06/14 15:54:17;;;;;;;17.15;4.90;;;24.40;46.20;;;;;;6310332;27;81077;-67
2022/06/14 15:57:17;;;;;;;12.25;3.90;;;24.40;47.00;;;;;;6271573;27;83370;-67
2022/06/14 16:00:17;;;;;;;15.57;5.55;;;24.40;47.20;;;;;;6306950;27;81775;-68
2022/06/14 16:03:18;;;;;;;16.02;4.13;;;24.40;47.20;;;;;;6283249;27;81860;-67
2022/06/14 16:06:18;;;;;;;16.20;4.93;;;24.40;47.00;;;;;;6306756;27;81437;-67
2022/06/14 16:09:19;;;;;;;14.45;3.40;;;24.40;47.40;;;;;;6306506;27;80610;-66